Time;durP1;ratioP1;P1;durP2;ratioP2;P2;SDS_P1;SDS_P2;PMS_P1;PMS_P2;Temp;Humidity;BMP_temperature;BMP_pressure;BME280_temperature;BME280_humidity;BME280_pressure;Samples;Min_cycle;Max_cycle;Signal;HPM_P1;HPM_P2
2023/01/21 00:00:59;;;;;;;22.10;14.47;;;;;;;-5.43;100.00;96548.75;5080952;28;20425;-75
2023/01/21 00:03:25;;;;;;;25.80;14.30;;;;;;;-5.23;100.00;96584.53;5052543;28;20437;-75
2023/01/21 00:05:53;;;;;;;15.17;7.53;;;;;;;-5.42;100.00;96545.97;5053798;28;20873;-75
2023/01/21 00:08:20;;;;;;;23.87;15.03;;;;;;;-5.25;100.00;96573.66;5062835;28;20440;-75
2023/01/21 00:10:46;;;;;;;22.40;14.10;;;;;;;-5.59;100.00;96516.69;5060398;28;20519;-75
2023/01/21 00:13:13;;;;;;;21.40;13.87;;;;;;;-5.33;100.00;96558.53;5083184;28;20512;-75
2023/01/21 00:15:39;;;;;;;18.37;12.10;;;;;;;-5.33;100.00;96549.00;5058389;28;20955;-75
2023/01/21 00:18:07;;;;;;;23.37;14.83;;;;;;;-5.26;100.00;96564.38;5061331;28;20527;-75
2023/01/21 00:20:33;;;;;;;25.97;14.93;;;;;;;-5.20;100.00;96584.91;5072265;28;20432;-75
2023/01/21 00:23:00;;;;;;;27.70;16.20;;;;;;;-5.01;100.00;96595.91;5083647;28;20541;-74
2023/01/21 00:25:27;;;;;;;21.67;14.07;;;;;;;-5.21;100.00;96570.44;5080041;28;20439;-75
2023/01/21 00:27:54;;;;;;;25.63;14.73;;;;;;;-5.18;100.00;96582.88;5070954;28;20457;-75
2023/01/21 00:30:21;;;;;;;23.23;16.03;;;;;;;-5.39;100.00;96537.00;5069955;28;20468;-75
2023/01/21 00:32:48;;;;;;;22.50;14.47;;;;;;;-5.25;100.00;96566.72;5072163;28;20462;-75
2023/01/21 00:35:15;;;;;;;17.27;11.00;;;;;;;-5.41;100.00;96515.84;5080658;28;20437;-75
2023/01/21 00:37:42;;;;;;;19.47;14.30;;;;;;;-5.14;100.00;96572.91;5063554;28;20484;-75
2023/01/21 00:40:09;;;;;;;24.93;16.67;;;;;;;-5.32;100.00;96540.28;5071760;28;20800;-75
2023/01/21 00:42:36;;;;;;;19.13;12.80;;;;;;;-5.17;100.00;96553.53;5083893;28;21061;-75
2023/01/21 00:45:03;;;;;;;22.73;14.60;;;;;;;-5.10;100.00;96564.50;5059270;28;20535;-75
2023/01/21 00:47:30;;;;;;;22.03;15.23;;;;;;;-4.88;100.00;96606.03;5084124;28;20562;-75
2023/01/21 00:49:56;;;;;;;18.27;13.70;;;;;;;-5.21;100.00;96555.00;5050643;28;20491;-75
2023/01/21 00:52:23;;;;;;;22.43;13.90;;;;;;;-4.74;100.00;96600.69;5051793;28;20443;-75
2023/01/21 00:54:50;;;;;;;24.80;13.33;;;;;;;-4.97;100.00;96589.31;5090354;28;20792;-75
2023/01/21 00:57:16;;;;;;;24.77;15.67;;;;;;;-5.37;100.00;96528.03;5068142;28;20562;-75
2023/01/21 00:59:43;;;;;;;21.10;14.80;;;;;;;-5.06;100.00;96565.66;5051579;28;20433;-75
2023/01/21 01:02:10;;;;;;;16.70;11.40;;;;;;;-4.76;100.00;96606.06;5050247;28;20519;-75
2023/01/21 01:04:37;;;;;;;21.80;14.40;;;;;;;-5.03;100.00;96555.91;5057755;28;20940;-75
2023/01/21 01:07:03;;;;;;;20.30;13.13;;;;;;;-4.79;100.00;96594.41;5071607;28;20920;-75
2023/01/21 01:09:30;;;;;;;20.93;13.63;;;;;;;-5.22;100.00;96526.84;5071435;28;20428;-75
2023/01/21 01:11:57;;;;;;;20.80;13.97;;;;;;;-4.88;100.00;96580.25;5071492;28;20811;-75
2023/01/21 01:14:24;;;;;;;23.87;16.17;;;;;;;-4.70;100.00;96602.59;5078360;28;20431;-75
2023/01/21 01:16:50;;;;;;;21.87;13.67;;;;;;;-5.00;100.00;96555.47;5084409;28;20525;-75
2023/01/21 01:19:17;;;;;;;18.47;14.33;;;;;;;-4.77;100.00;96591.59;5085836;28;20429;-75
2023/01/21 01:21:44;;;;;;;23.40;14.07;;;;;;;-4.57;100.00;96609.31;5051407;28;20465;-75
2023/01/21 01:24:11;;;;;;;21.47;12.77;;;;;;;-4.86;100.00;96567.13;5070891;28;20467;-75
2023/01/21 01:26:41;;;;;;;25.03;14.90;;;;;;;-4.50;100.00;96613.38;5083566;28;20447;-75
2023/01/21 01:29:12;;;;;;;24.23;16.30;;;;;;;-4.67;100.00;96580.72;5050971;28;20443;-75
2023/01/21 01:31:39;;;;;;;17.83;9.70;;;;;;;-4.65;100.00;96610.47;5069077;28;20433;-75
2023/01/21 01:34:06;;;;;;;21.40;15.13;;;;;;;-4.93;100.00;96562.09;5072574;28;20891;-75
2023/01/21 01:36:32;;;;;;;18.43;13.03;;;;;;;-4.96;100.00;96574.63;5066728;28;20461;-75
2023/01/21 01:38:59;;;;;;;19.73;12.20;;;;;;;-4.83;100.00;96588.09;5062710;28;20429;-75
2023/01/21 01:41:28;;;;;;;20.63;14.03;;;;;;;-4.60;100.00;96626.03;5080308;28;20433;-75
2023/01/21 01:44:00;;;;;;;20.80;14.43;;;;;;;-4.65;100.00;96623.34;5080890;28;20469;-75
2023/01/21 01:46:29;;;;;;;30.10;14.63;;;;;;;-4.69;100.00;96611.09;5073113;28;20462;-75
2023/01/21 01:49:02;;;;;;;28.07;15.93;;;;;;;-4.79;100.00;96606.50;5071854;28;20438;-75
2023/01/21 01:51:35;;;;;;;25.27;14.97;;;;;;;-4.83;100.00;96601.00;5075922;28;20850;-75
2023/01/21 01:54:04;;;;;;;24.77;16.50;;;;;;;-4.64;100.00;96632.66;5064083;28;20426;-75
2023/01/21 01:56:31;;;;;;;26.40;16.83;;;;;;;-4.74;100.00;96609.19;5058772;28;20524;-75
2023/01/21 01:58:57;;;;;;;26.43;15.77;;;;;;;-4.59;100.00;96624.25;5071030;28;20819;-75
2023/01/21 02:01:24;;;;;;;23.10;15.73;;;;;;;-4.61;100.00;96616.72;5062901;28;20446;-75
2023/01/21 02:03:58;;;;;;;22.63;15.80;;;;;;;-4.81;100.00;96582.72;5067096;28;20435;-75
2023/01/21 02:06:26;;;;;;;24.50;15.70;;;;;;;-4.51;100.00;96632.44;5078825;28;20982;-75
2023/01/21 02:08:54;;;;;;;19.53;13.50;;;;;;;-4.68;100.00;96594.63;5043285;28;20437;-75
2023/01/21 02:11:21;;;;;;;21.20;14.60;;;;;;;-4.74;100.00;96580.84;5058741;28;20523;-75
2023/01/21 02:13:56;;;;;;;28.23;16.97;;;;;;;-4.76;100.00;96581.06;5071747;28;20475;-75
2023/01/21 02:16:28;;;;;;;26.53;15.33;;;;;;;-4.45;100.00;96633.34;5081767;28;20459;-75
2023/01/21 02:19:45;;;;;;;22.10;14.83;;;;;;;-4.67;100.00;96601.34;5082734;28;20425;-75
2023/01/21 02:22:20;;;;;;;23.20;15.00;;;;;;;-4.51;100.00;96605.88;4987847;28;21112;-75
2023/01/21 02:25:04;;;;;;;24.83;16.17;;;;;;;-4.30;100.00;96630.31;4960872;28;20539;-75
2023/01/21 02:27:40;;;;;;;24.37;14.50;;;;;;;-4.33;100.00;96636.72;5024540;28;20806;-75
2023/01/21 02:30:31;;;;;;;30.33;17.10;;;;;;;-4.28;100.00;96636.03;5069732;28;20491;-75
2023/01/21 02:33:17;;;;;;;25.00;15.70;;;;;;;-4.26;100.00;96642.56;5070980;28;20777;-75
2023/01/21 02:36:07;;;;;;;26.03;16.87;;;;;;;-4.16;100.00;96642.78;5062533;28;20467;-75
2023/01/21 02:38:48;;;;;;;17.50;11.50;;;;;;;-4.35;100.00;96614.75;5070122;28;20468;-75
2023/01/21 02:41:44;;;;;;;22.20;15.83;;;;;;;-4.34;100.00;96609.34;5070965;28;20421;-75
2023/01/21 02:44:23;;;;;;;28.20;16.57;;;;;;;-4.18;100.00;96628.53;5082178;28;20824;-75
2023/01/21 02:46:53;;;;;;;22.67;13.40;;;;;;;-4.29;100.00;96599.13;5064558;28;20469;-75
2023/01/21 02:49:29;;;;;;;23.60;15.33;;;;;;;-4.07;100.00;96630.31;5044492;28;20434;-75
2023/01/21 02:51:56;;;;;;;26.83;14.50;;;;;;;-4.21;100.00;96590.28;5079272;28;20418;-75
2023/01/21 02:54:38;;;;;;;24.63;14.83;;;;;;;-3.82;100.00;96630.06;5058672;28;20434;-75
2023/01/21 02:57:06;;;;;;;25.73;14.60;;;;;;;-3.99;100.00;96611.13;5077788;28;20555;-75
2023/01/21 02:59:34;;;;;;;28.03;16.67;;;;;;;-4.00;100.00;96596.66;5082798;28;20433;-75
2023/01/21 03:02:12;;;;;;;21.40;14.83;;;;;;;-3.76;100.00;96636.91;5058083;28;20452;-75
2023/01/21 03:04:56;;;;;;;22.20;12.80;;;;;;;-4.02;100.00;96581.38;5037189;28;20441;-75
2023/01/21 03:07:33;;;;;;;21.00;13.87;;;;;;;-3.64;100.00;96631.72;5065985;28;20550;-75
2023/01/21 03:10:12;;;;;;;25.80;14.73;;;;;;;-3.60;100.00;96627.69;5069156;28;20471;-75
2023/01/21 03:13:00;;;;;;;23.30;13.17;;;;;;;-3.61;100.00;96618.34;5077178;28;20523;-75
2023/01/21 03:18:33;;;;;;;22.90;15.73;;;;;;;-3.58;100.00;96629.03;5086696;28;20447;-75
2023/01/21 03:21:07;;;;;;;20.77;12.20;;;;;;;-3.73;100.00;96595.16;5064643;28;20894;-75
2023/01/21 03:23:41;;;;;;;17.37;12.13;;;;;;;-3.59;100.00;96611.16;5076978;28;20455;-75
2023/01/21 03:26:12;;;;;;;24.00;15.00;;;;;;;-3.65;100.00;96584.44;5073159;28;20473;-75
2023/01/21 03:28:46;;;;;;;21.33;12.67;;;;;;;-3.55;100.00;96588.25;5070425;28;20431;-75
2023/01/21 03:31:23;;;;;;;19.30;12.33;;;;;;;-3.50;100.00;96599.44;5086182;28;20438;-75
2023/01/21 03:33:54;;;;;;;19.83;11.63;;;;;;;-3.29;100.00;96629.84;5053684;28;20458;-75
2023/01/21 03:36:39;;;;;;;28.53;12.50;;;;;;;-3.63;100.00;96584.19;5067896;28;20551;-75
2023/01/21 03:39:35;;;;;;;24.57;13.70;;;;;;;-3.39;100.00;96619.28;5083952;28;20936;-75
2023/01/21 03:42:02;;;;;;;14.23;9.67;;;;;;;-3.23;100.00;96615.19;5026225;28;20466;-75
2023/01/21 03:44:29;;;;;;;20.93;12.50;;;;;;;-3.33;100.00;96602.88;5069227;28;20986;-75
2023/01/21 03:47:21;;;;;;;24.87;13.50;;;;;;;-3.30;100.00;96617.91;5052797;28;20510;-75
2023/01/21 03:50:19;;;;;;;25.23;11.57;;;;;;;-3.71;100.00;96530.34;5071644;28;20542;-75
2023/01/21 03:52:45;;;;;;;17.83;10.77;;;;;;;-3.52;100.00;96569.69;5061583;28;20435;-75
2023/01/21 03:55:14;;;;;;;21.13;12.40;;;;;;;-3.34;100.00;96616.00;5084411;28;20440;-75
2023/01/21 03:57:41;;;;;;;14.40;10.70;;;;;;;-3.53;100.00;96568.13;5058070;28;20982;-75
2023/01/21 04:00:09;;;;;;;16.17;10.90;;;;;;;-3.29;100.00;96619.50;5055607;28;20453;-75
2023/01/21 04:02:35;;;;;;;15.33;10.53;;;;;;;-3.54;100.00;96566.56;5073384;28;20546;-75
2023/01/21 04:05:02;;;;;;;17.30;11.00;;;;;;;-3.45;100.00;96585.84;5081680;28;20520;-75
2023/01/21 04:07:29;;;;;;;17.93;10.90;;;;;;;-3.45;100.00;96584.06;5105919;28;20516;-76
2023/01/21 04:09:56;;;;;;;21.10;12.67;;;;;;;-3.42;100.00;96593.91;5085681;28;20440;-75
2023/01/21 04:12:22;;;;;;;15.07;10.90;;;;;;;-3.49;100.00;96571.81;5058529;28;20468;-75
2023/01/21 04:14:49;;;;;;;17.50;12.00;;;;;;;-3.69;100.00;96554.13;5073457;28;20523;-75
2023/01/21 04:17:15;;;;;;;15.63;9.93;;;;;;;-3.39;100.00;96596.03;5086809;28;20781;-75
2023/01/21 04:19:42;;;;;;;18.70;11.57;;;;;;;-3.18;100.00;96612.72;5066628;28;20467;-75
2023/01/21 04:22:09;;;;;;;26.00;12.70;;;;;;;-3.43;100.00;96594.94;5057157;28;20452;-75
2023/01/21 04:24:35;;;;;;;24.07;11.53;;;;;;;-3.28;100.00;96597.00;5053619;28;20480;-75
2023/01/21 04:27:05;;;;;;;24.43;11.93;;;;;;;-3.38;100.00;96583.91;5071572;28;20452;-75
2023/01/21 04:29:32;;;;;;;25.47;13.23;;;;;;;-3.18;100.00;96624.84;5071985;28;20432;-75
2023/01/21 04:31:58;;;;;;;16.73;11.17;;;;;;;-3.21;100.00;96602.81;5080607;28;20425;-75
2023/01/21 04:34:25;;;;;;;16.87;10.87;;;;;;;-3.10;100.00;96625.25;5052218;28;20433;-75
2023/01/21 04:36:52;;;;;;;17.63;10.63;;;;;;;-3.10;100.00;96632.22;5051972;28;20475;-75
2023/01/21 04:39:18;;;;;;;12.23;8.57;;;;;;;-3.10;100.00;96622.66;5063748;28;20497;-75
2023/01/21 04:41:45;;;;;;;24.30;11.50;;;;;;;-3.19;100.00;96607.78;5080834;28;20429;-75
2023/01/21 04:44:12;;;;;;;14.83;10.20;;;;;;;-3.30;100.00;96599.03;5063811;28;20463;-75
2023/01/21 04:46:38;;;;;;;19.30;12.03;;;;;;;-3.25;100.00;96616.44;5078712;28;20494;-75
2023/01/21 04:49:05;;;;;;;15.30;11.83;;;;;;;-3.23;100.00;96610.00;5067699;28;20445;-75
2023/01/21 04:51:32;;;;;;;17.60;12.10;;;;;;;-3.20;100.00;96624.31;5078999;28;20487;-75
2023/01/21 04:53:58;;;;;;;20.90;12.47;;;;;;;-3.30;100.00;96610.16;5063923;28;20432;-75
2023/01/21 04:56:25;;;;;;;23.13;11.53;;;;;;;-3.05;100.00;96627.16;5077346;28;20475;-75
2023/01/21 04:58:52;;;;;;;14.50;9.30;;;;;;;-3.11;100.00;96628.84;5062775;28;20440;-75
2023/01/21 05:01:19;;;;;;;19.50;12.20;;;;;;;-3.36;100.00;96597.38;5061023;28;20504;-75
2023/01/21 05:03:45;;;;;;;26.13;12.50;;;;;;;-3.28;100.00;96607.34;5066171;28;20496;-75
2023/01/21 05:06:12;;;;;;;20.03;12.50;;;;;;;-3.16;100.00;96633.16;5052864;28;20547;-75
2023/01/21 05:08:39;;;;;;;21.33;11.47;;;;;;;-3.30;100.00;96615.34;5047766;28;20429;-75
2023/01/21 05:11:17;;;;;;;14.27;7.13;;;;;;;-3.12;100.00;96634.25;5064911;28;20425;-75
2023/01/21 05:13:44;;;;;;;18.70;11.30;;;;;;;-3.38;100.00;96597.59;5052782;28;20896;-75
2023/01/21 05:16:13;;;;;;;13.20;9.90;;;;;;;-3.36;100.00;96594.78;5081178;28;20443;-75
2023/01/21 05:18:39;;;;;;;20.77;13.03;;;;;;;-3.37;100.00;96606.94;5087728;28;20946;-75
2023/01/21 05:21:07;;;;;;;21.30;12.37;;;;;;;-3.11;100.00;96644.38;5059803;28;20454;-75
2023/01/21 05:23:33;;;;;;;18.17;10.53;;;;;;;-3.41;100.00;96602.44;5066478;28;20487;-75
2023/01/21 05:26:00;;;;;;;20.47;11.47;;;;;;;-3.17;100.00;96637.53;5051087;28;20910;-75
2023/01/21 05:28:26;;;;;;;19.20;11.80;;;;;;;-3.33;100.00;96607.28;5069940;28;20452;-75
2023/01/21 05:30:53;;;;;;;14.13;9.07;;;;;;;-3.34;100.00;96616.00;5073443;28;20952;-75
2023/01/21 05:33:24;;;;;;;16.43;11.40;;;;;;;-3.48;100.00;96583.69;5066597;28;20420;-75
2023/01/21 05:35:51;;;;;;;19.73;10.17;;;;;;;-3.52;100.00;96585.19;5071160;28;20444;-75
2023/01/21 05:38:18;;;;;;;26.03;12.90;;;;;;;-3.22;100.00;96644.41;5087483;28;20923;-75
2023/01/21 05:40:45;;;;;;;21.57;13.90;;;;;;;-3.40;100.00;96630.66;5080995;28;20527;-75
2023/01/21 05:43:11;;;;;;;18.80;11.03;;;;;;;-3.27;100.00;96656.22;5084314;28;20459;-75
2023/01/21 05:45:38;;;;;;;29.97;10.33;;;;;;;-3.46;100.00;96633.38;5080447;28;20805;-75
2023/01/21 05:48:05;;;;;;;12.97;9.30;;;;;;;-3.39;100.00;96631.44;5076927;28;20430;-75
2023/01/21 05:50:31;;;;;;;15.40;10.57;;;;;;;-3.43;100.00;96641.44;5080246;28;20436;-75
2023/01/21 05:52:58;;;;;;;18.83;11.27;;;;;;;-3.39;100.00;96641.78;5084144;28;20916;-75
2023/01/21 05:55:25;;;;;;;20.30;8.93;;;;;;;-3.50;100.00;96633.03;5070250;28;20436;-75
2023/01/21 05:57:51;;;;;;;14.33;10.67;;;;;;;-3.23;100.00;96666.88;5063744;28;20917;-75
2023/01/21 06:00:18;;;;;;;20.53;12.93;;;;;;;-3.61;100.00;96626.09;5070863;28;20466;-75
2023/01/21 06:02:46;;;;;;;20.10;10.53;;;;;;;-3.21;100.00;96677.00;5077916;28;20482;-75
2023/01/21 06:05:12;;;;;;;15.53;10.50;;;;;;;-3.95;100.00;96574.31;5081524;28;21007;-75
2023/01/21 06:07:39;;;;;;;15.47;10.53;;;;;;;-3.29;100.00;96675.56;5057416;28;21001;-75
2023/01/21 06:10:07;;;;;;;19.63;10.00;;;;;;;-3.49;100.00;96639.78;5067278;28;20507;-75
2023/01/21 06:12:33;;;;;;;16.70;10.23;;;;;;;-3.96;100.00;96566.78;5073952;28;20939;-75
2023/01/21 06:15:00;;;;;;;20.60;11.03;;;;;;;-3.61;100.00;96642.38;5067681;28;20421;-75
2023/01/21 06:17:27;;;;;;;13.83;7.80;;;;;;;-3.23;100.00;96687.56;5080846;28;20571;-75
2023/01/21 06:19:53;;;;;;;15.60;8.53;;;;;;;-3.57;100.00;96653.06;5065558;28;20436;-75
2023/01/21 06:22:20;;;;;;;20.10;12.03;;;;;;;-3.80;100.00;96625.47;5074991;28;20475;-75
2023/01/21 06:24:47;;;;;;;20.57;12.87;;;;;;;-3.67;100.00;96642.50;5060157;28;21024;-75
2023/01/21 06:27:13;;;;;;;21.17;12.60;;;;;;;-3.57;100.00;96651.25;5069684;28;20976;-75
2023/01/21 06:29:40;;;;;;;12.77;7.93;;;;;;;-3.60;100.00;96635.44;5083061;28;20974;-75
2023/01/21 06:32:06;;;;;;;20.97;10.00;;;;;;;-3.52;100.00;96654.94;5064697;28;20928;-75
2023/01/21 06:34:33;;;;;;;14.33;9.40;;;;;;;-3.59;100.00;96655.09;5063875;28;20457;-76
2023/01/21 06:37:00;;;;;;;11.40;8.40;;;;;;;-3.38;100.00;96682.88;5056557;28;20952;-75
2023/01/21 06:39:26;;;;;;;9.60;7.60;;;;;;;-3.76;100.00;96629.16;5069523;28;20480;-75
2023/01/21 06:41:53;;;;;;;16.83;10.70;;;;;;;-3.66;100.00;96667.34;5077464;28;20500;-75
2023/01/21 06:44:21;;;;;;;18.87;9.10;;;;;;;-3.64;100.00;96676.41;5060896;28;20489;-75
2023/01/21 06:46:48;;;;;;;15.87;8.97;;;;;;;-3.68;100.00;96648.69;5058522;28;20448;-74
2023/01/21 06:49:25;;;;;;;13.10;8.50;;;;;;;-3.65;100.00;96659.34;5072370;28;20430;-75
2023/01/21 06:51:52;;;;;;;12.47;7.93;;;;;;;-3.63;100.00;96659.91;5063380;28;20501;-75
2023/01/21 06:54:19;;;;;;;15.33;8.60;;;;;;;-3.43;100.00;96693.13;5069340;28;20457;-75
2023/01/21 06:56:46;;;;;;;11.10;7.67;;;;;;;-3.57;100.00;96676.31;5069511;28;20464;-75
2023/01/21 06:59:13;;;;;;;15.60;10.30;;;;;;;-3.94;100.00;96606.84;5066528;28;21004;-75
2023/01/21 07:01:39;;;;;;;13.00;8.40;;;;;;;-3.50;100.00;96683.94;5069286;28;20472;-75
2023/01/21 07:04:06;;;;;;;15.03;10.27;;;;;;;-3.41;100.00;96696.28;5079069;28;20519;-75
2023/01/21 07:06:33;;;;;;;13.37;9.77;;;;;;;-3.62;100.00;96664.06;5050633;28;20449;-75
2023/01/21 07:09:00;;;;;;;13.53;8.43;;;;;;;-3.43;100.00;96693.13;5032583;28;20444;-75
2023/01/21 07:11:26;;;;;;;15.40;9.60;;;;;;;-3.51;100.00;96672.03;5058511;28;20887;-75
2023/01/21 07:13:53;;;;;;;12.07;8.40;;;;;;;-3.68;100.00;96646.13;5083009;28;20426;-75
2023/01/21 07:16:20;;;;;;;19.70;10.07;;;;;;;-3.34;100.00;96696.94;5078837;28;20451;-75
2023/01/21 07:18:47;;;;;;;14.03;8.70;;;;;;;-3.30;100.00;96705.03;5074251;28;20456;-75
2023/01/21 07:21:14;;;;;;;17.57;10.70;;;;;;;-3.31;100.00;96696.50;5062648;28;20436;-75
2023/01/21 07:23:41;;;;;;;16.87;9.27;;;;;;;-3.39;100.00;96683.13;5056796;28;20552;-75
2023/01/21 07:26:08;;;;;;;15.67;8.93;;;;;;;-3.61;100.00;96662.25;5071368;28;20487;-74
2023/01/21 07:28:35;;;;;;;10.13;8.13;;;;;;;-3.37;100.00;96694.00;5077300;28;20419;-75
2023/01/21 07:31:02;;;;;;;17.10;7.70;;;;;;;-3.40;100.00;96689.31;5061867;28;20458;-74
2023/01/21 07:33:29;;;;;;;9.93;7.33;;;;;;;-3.51;100.00;96700.44;5066019;28;20424;-74
2023/01/21 07:35:56;;;;;;;13.67;8.37;;;;;;;-3.44;100.00;96699.31;5069073;28;20510;-75
2023/01/21 07:38:22;;;;;;;14.13;8.67;;;;;;;-3.57;100.00;96679.69;5079278;28;20436;-74
2023/01/21 07:40:49;;;;;;;8.33;6.47;;;;;;;-3.61;100.00;96677.75;5048984;28;20429;-75
2023/01/21 07:43:16;;;;;;;9.97;6.73;;;;;;;-3.55;100.00;96683.84;5071456;28;20515;-74
2023/01/21 07:45:44;;;;;;;13.10;8.33;;;;;;;-3.38;100.00;96715.72;5077681;28;20464;-75
2023/01/21 07:48:10;;;;;;;16.90;8.70;;;;;;;-3.27;100.00;96715.69;5061435;28;20437;-75
2023/01/21 07:50:37;;;;;;;23.30;10.50;;;;;;;-3.42;100.00;96706.84;5049122;28;20457;-75
2023/01/21 07:53:04;;;;;;;16.40;9.80;;;;;;;-3.29;100.00;96712.53;5071857;28;20925;-75
2023/01/21 07:55:31;;;;;;;20.90;11.40;;;;;;;-3.61;100.00;96695.84;5049245;28;20444;-75
2023/01/21 07:57:58;;;;;;;22.37;11.87;;;;;;;-3.45;100.00;96709.88;5075661;28;20512;-75
2023/01/21 08:00:26;;;;;;;19.13;11.47;;;;;;;-3.40;100.00;96705.59;5060762;28;20535;-75
2023/01/21 08:02:53;;;;;;;13.53;10.70;;;;;;;-3.63;100.00;96682.38;5076579;28;20429;-74
2023/01/21 08:05:22;;;;;;;14.43;9.80;;;;;;;-3.70;100.00;96667.00;5032279;28;20437;-75
2023/01/21 08:07:49;;;;;;;15.90;9.10;;;;;;;-3.58;100.00;96679.91;5050102;28;20430;-75
2023/01/21 08:10:17;;;;;;;18.40;12.27;;;;;;;-3.40;100.00;96718.53;5063557;28;20431;-75
2023/01/21 08:12:44;;;;;;;20.37;11.73;;;;;;;-3.35;100.00;96728.94;5080370;28;20419;-75
2023/01/21 08:15:11;;;;;;;11.53;9.13;;;;;;;-3.34;100.00;96724.56;5079644;28;20903;-75
2023/01/21 08:17:39;;;;;;;18.53;10.70;;;;;;;-3.31;100.00;96724.91;5095448;28;20517;-75
2023/01/21 08:20:07;;;;;;;9.87;7.10;;;;;;;-3.26;100.00;96739.75;5079604;28;20920;-75
2023/01/21 08:22:33;;;;;;;14.10;9.73;;;;;;;-3.38;100.00;96728.63;5052202;28;20465;-75
2023/01/21 08:25:00;;;;;;;14.93;8.17;;;;;;;-3.36;100.00;96714.47;5079365;28;20463;-75
2023/01/21 08:27:27;;;;;;;15.83;8.13;;;;;;;-3.50;100.00;96709.75;5081174;28;20500;-75
2023/01/21 08:29:54;;;;;;;15.43;7.60;;;;;;;-3.22;100.00;96752.97;5079365;28;20420;-75
2023/01/21 08:32:21;;;;;;;13.50;8.63;;;;;;;-3.50;100.00;96713.13;5068276;28;20459;-75
2023/01/21 08:34:49;;;;;;;11.50;7.77;;;;;;;-3.16;100.00;96759.84;5065959;28;20421;-75
2023/01/21 08:37:16;;;;;;;10.30;6.17;;;;;;;-3.18;100.00;96754.91;5064054;28;20500;-74
2023/01/21 08:39:42;;;;;;;9.10;6.10;;;;;;;-3.39;100.00;96716.72;5079126;28;20816;-75
2023/01/21 08:42:09;;;;;;;8.80;5.67;;;;;;;-3.22;100.00;96738.25;5059832;28;20444;-75
2023/01/21 08:44:36;;;;;;;15.30;7.73;;;;;;;-3.34;100.00;96725.38;5083846;28;20463;-75
2023/01/21 08:47:02;;;;;;;13.13;8.90;;;;;;;-3.08;100.00;96767.22;5059836;28;20510;-75
2023/01/21 08:49:29;;;;;;;11.77;7.67;;;;;;;-3.38;100.00;96726.81;5072938;28;20845;-75
2023/01/21 08:51:56;;;;;;;16.70;6.23;;;;;;;-3.04;100.00;96773.53;5080087;28;20431;-75
2023/01/21 08:54:22;;;;;;;17.63;9.30;;;;;;;-3.06;100.00;96778.94;5061797;28;20527;-75
2023/01/21 08:56:49;;;;;;;9.70;6.60;;;;;;;-3.19;100.00;96753.34;5059843;28;20502;-75
2023/01/21 08:59:16;;;;;;;12.43;7.47;;;;;;;-3.07;100.00;96767.03;5073394;28;20912;-75
2023/01/21 09:01:42;;;;;;;12.90;8.80;;;;;;;-3.12;100.00;96758.38;5084871;28;21016;-75
2023/01/21 09:04:09;;;;;;;9.90;5.90;;;;;;;-3.19;100.00;96766.25;5082994;28;20492;-75
2023/01/21 09:06:36;;;;;;;17.07;7.27;;;;;;;-3.19;100.00;96743.00;5035636;28;21048;-75
2023/01/21 09:09:02;;;;;;;11.23;7.13;;;;;;;-3.02;100.00;96777.47;5061534;28;20875;-74
2023/01/21 09:11:29;;;;;;;11.57;7.60;;;;;;;-3.17;100.00;96766.03;5070670;28;20435;-75
2023/01/21 09:14:02;;;;;;;10.07;5.97;;;;;;;-3.23;100.00;96736.69;5074898;28;20873;-75
2023/01/21 09:16:30;;;;;;;9.27;6.23;;;;;;;-3.06;100.00;96763.44;5081952;28;20487;-75
2023/01/21 09:18:58;;;;;;;9.60;7.07;;;;;;;-2.97;100.00;96794.88;5087220;28;20491;-75
2023/01/21 09:21:26;;;;;;;7.60;5.40;;;;;;;-2.87;100.00;96802.06;5066222;28;20468;-75
2023/01/21 09:23:53;;;;;;;10.30;7.20;;;;;;;-2.94;100.00;96799.59;5075902;28;20461;-75
2023/01/21 09:26:21;;;;;;;9.80;5.77;;;;;;;-2.81;100.00;96806.31;5080789;28;20474;-75
2023/01/21 09:28:56;;;;;;;7.63;6.20;;;;;;;-3.18;100.00;96765.25;5080954;28;20483;-75
2023/01/21 09:31:25;;;;;;;10.70;7.50;;;;;;;-3.05;100.00;96787.50;5077368;28;20427;-75
2023/01/21 09:33:58;;;;;;;9.47;7.00;;;;;;;-2.87;100.00;96810.59;5057751;28;20435;-75
2023/01/21 09:36:30;;;;;;;5.57;4.70;;;;;;;-2.85;100.00;96810.38;5084886;28;20876;-75
2023/01/21 09:38:58;;;;;;;8.27;6.17;;;;;;;-2.82;100.00;96822.84;5072666;28;20416;-75
2023/01/21 09:41:29;;;;;;;9.93;7.53;;;;;;;-2.76;100.00;96821.94;5071430;28;20871;-75
2023/01/21 09:44:11;;;;;;;11.47;7.00;;;;;;;-2.74;100.00;96817.31;5081645;28;20967;-75
2023/01/21 09:47:07;;;;;;;8.90;8.00;;;;;;;-2.57;100.00;96819.97;5066361;28;20435;-75
2023/01/21 09:49:46;;;;;;;12.53;6.90;;;;;;;-2.68;100.00;96816.41;5055178;28;20432;-76
2023/01/21 09:52:15;;;;;;;16.23;8.53;;;;;;;-2.72;100.00;96828.22;5086691;28;20429;-75
2023/01/21 09:54:42;;;;;;;12.13;7.10;;;;;;;-3.07;100.00;96761.84;5105026;28;20416;-75
2023/01/21 09:57:39;;;;;;;10.57;7.80;;;;;;;-2.87;100.00;96797.66;5072426;28;20547;-75
2023/01/21 10:00:33;;;;;;;9.50;6.80;;;;;;;-2.78;100.00;96818.81;5069637;28;20427;-75
2023/01/21 10:03:18;;;;;;;9.80;7.00;;;;;;;-2.56;100.00;96822.31;5071811;28;20786;-75
2023/01/21 10:05:55;;;;;;;13.17;6.87;;;;;;;-2.57;100.00;96828.50;5084356;28;20475;-74
2023/01/21 10:08:39;;;;;;;13.60;8.13;;;;;;;-2.55;100.00;96829.06;5081918;28;20793;-75
2023/01/21 10:11:28;;;;;;;6.43;5.33;;;;;;;-2.74;100.00;96825.88;5057182;28;20440;-74
2023/01/21 10:14:52;;;;;;;4.90;4.47;;;;;;;-2.75;100.00;96828.69;5059204;28;20482;-74
2023/01/21 10:17:43;;;;;;;4.80;4.13;;;;;;;-2.76;100.00;96832.28;4981753;28;20963;-74
2023/01/21 10:20:10;;;;;;;8.60;5.77;;;;;;;-2.69;100.00;96838.91;4956961;28;20538;-75
2023/01/21 10:22:42;;;;;;;4.80;3.80;;;;;;;-3.00;100.00;96785.78;4974623;28;20823;-74
2023/01/21 10:25:24;;;;;;;7.50;5.40;;;;;;;-2.74;100.00;96838.03;4972288;28;21047;-74
2023/01/21 10:27:52;;;;;;;6.00;4.60;;;;;;;-2.86;100.00;96799.25;4973754;28;20440;-73
2023/01/21 10:30:21;;;;;;;8.20;4.83;;;;;;;-2.88;100.00;96797.91;4986472;28;20437;-74
2023/01/21 10:32:51;;;;;;;6.40;5.63;;;;;;;-2.75;100.00;96813.94;4970396;28;20506;-74
2023/01/21 10:35:27;;;;;;;7.87;5.30;;;;;;;-2.56;100.00;96822.31;4953843;28;20495;-73
2023/01/21 10:38:33;;;;;;;8.80;5.80;;;;;;;-2.54;100.00;96833.22;4953980;28;20824;-73
2023/01/21 10:41:29;;;;;;;6.80;5.07;;;;;;;-2.58;100.00;96832.13;4961943;28;20486;-73
2023/01/21 10:44:23;;;;;;;8.40;5.10;;;;;;;-2.56;100.00;96830.09;4970406;28;20564;-74
2023/01/21 10:47:13;;;;;;;7.53;5.33;;;;;;;-2.49;100.00;96833.34;4961066;28;20469;-74
2023/01/21 10:49:49;;;;;;;7.23;5.40;;;;;;;-2.51;100.00;96824.25;5041319;28;20435;-73
2023/01/21 10:52:36;;;;;;;7.50;5.77;;;;;;;-2.54;100.00;96824.69;5067134;28;20424;-74
2023/01/21 10:55:14;;;;;;;6.40;5.37;;;;;;;-2.59;100.00;96833.13;5054197;28;20463;-74
2023/01/21 10:57:59;;;;;;;7.97;5.00;;;;;;;-2.44;100.00;96822.28;5065836;28;20455;-74
2023/01/21 11:00:32;;;;;;;7.37;5.00;;;;;;;-2.46;100.00;96824.31;5049505;28;20441;-74
2023/01/21 11:03:02;;;;;;;6.90;4.97;;;;;;;-2.59;100.00;96804.69;5049426;28;20437;-74
2023/01/21 11:05:30;;;;;;;9.37;6.10;;;;;;;-2.52;100.00;96813.09;5082714;28;21007;-74
2023/01/21 11:07:57;;;;;;;3.80;3.50;;;;;;;-2.49;100.00;96827.38;5049254;28;20733;-74
2023/01/21 11:10:26;;;;;;;5.37;4.87;;;;;;;-2.63;100.00;96780.28;5063324;28;20424;-73
2023/01/21 11:12:54;;;;;;;6.73;4.87;;;;;;;-2.24;100.00;96827.06;5049226;28;20452;-74
2023/01/21 11:15:21;;;;;;;10.47;6.40;;;;;;;-2.54;100.00;96762.56;5064476;28;20447;-73
2023/01/21 11:17:58;;;;;;;6.50;5.00;;;;;;;-2.40;100.00;96769.84;5075359;28;20875;-74
2023/01/21 11:20:38;;;;;;;8.30;5.43;;;;;;;-2.09;100.00;96817.75;5069145;28;20456;-74
2023/01/21 11:23:23;;;;;;;9.20;6.07;;;;;;;-2.15;100.00;96777.22;5070563;28;20420;-74
2023/01/21 11:25:50;;;;;;;8.80;5.93;;;;;;;-2.11;100.00;96813.81;5068993;28;20496;-74
2023/01/21 11:28:25;;;;;;;7.50;5.30;;;;;;;-2.09;100.00;96811.78;5050044;28;20445;-73
2023/01/21 11:31:12;;;;;;;7.37;4.93;;;;;;;-2.20;100.00;96807.44;5052647;28;20447;-74
2023/01/21 11:33:41;;;;;;;7.33;4.87;;;;;;;-2.17;100.00;96794.03;5070359;28;20424;-74